sensor_id;sensor_type;location;lat;lon;timestamp;temperature;humidity
18191;DHT22;47004;51.366;12.348;2023-05-10T00:01:53;12.40;99.90
18191;DHT22;47004;51.366;12.348;2023-05-10T00:03:56;12.40;99.90
18191;DHT22;47004;51.366;12.348;2023-05-10T00:05:59;12.30;99.90
18191;DHT22;47004;51.366;12.348;2023-05-10T00:08:01;12.30;99.90
18191;DHT22;47004;51.366;12.348;2023-05-10T00:10:03;12.30;99.90
18191;DHT22;47004;51.366;12.348;2023-05-10T00:12:05;12.30;99.90
18191;DHT22;47004;51.366;12.348;2023-05-10T00:14:07;12.20;99.90
18191;DHT22;47004;51.366;12.348;2023-05-10T00:16:09;12.20;99.90
18191;DHT22;47004;51.366;12.348;2023-05-10T00:18:12;12.20;99.90
18191;DHT22;47004;51.366;12.348;2023-05-10T00:20:14;12.20;99.90
18191;DHT22;47004;51.366;12.348;2023-05-10T00:22:17;12.10;99.90
18191;DHT22;47004;51.366;12.348;2023-05-10T00:24:19;12.10;99.90
18191;DHT22;47004;51.366;12.348;2023-05-10T00:26:21;12.10;99.90
18191;DHT22;47004;51.366;12.348;2023-05-10T00:28:23;12.10;99.90
18191;DHT22;47004;51.366;12.348;2023-05-10T00:30:25;12.00;99.90
18191;DHT22;47004;51.366;12.348;2023-05-10T00:32:27;12.10;99.90
18191;DHT22;47004;51.366;12.348;2023-05-10T00:34:29;12.00;99.90
18191;DHT22;47004;51.366;12.348;2023-05-10T00:36:31;12.00;99.90
18191;DHT22;47004;51.366;12.348;2023-05-10T00:38:34;12.00;99.90
18191;DHT22;47004;51.366;12.348;2023-05-10T00:40:36;11.90;99.90
18191;DHT22;47004;51.366;12.348;2023-05-10T00:42:38;11.90;99.90
18191;DHT22;47004;51.366;12.348;2023-05-10T00:44:40;11.90;99.90
18191;DHT22;47004;51.366;12.348;2023-05-10T00:46:42;11.90;99.90
18191;DHT22;47004;51.366;12.348;2023-05-10T00:48:45;11.80;99.90
18191;DHT22;47004;51.366;12.348;2023-05-10T00:50:47;11.80;99.90
18191;DHT22;47004;51.366;12.348;2023-05-10T00:52:49;11.70;99.90
18191;DHT22;47004;51.366;12.348;2023-05-10T00:54:53;11.80;99.90
18191;DHT22;47004;51.366;12.348;2023-05-10T00:56:56;11.80;99.90
18191;DHT22;47004;51.366;12.348;2023-05-10T00:58:58;11.80;99.90
18191;DHT22;47004;51.366;12.348;2023-05-10T01:01:00;11.70;99.90
18191;DHT22;47004;51.366;12.348;2023-05-10T01:03:03;11.70;99.90
18191;DHT22;47004;51.366;12.348;2023-05-10T01:05:05;11.70;99.90
18191;DHT22;47004;51.366;12.348;2023-05-10T01:07:07;11.70;99.90
18191;DHT22;47004;51.366;12.348;2023-05-10T01:09:09;11.60;99.90
18191;DHT22;47004;51.366;12.348;2023-05-10T01:11:13;11.60;99.90
18191;DHT22;47004;51.366;12.348;2023-05-10T01:13:23;11.60;99.90
18191;DHT22;47004;51.366;12.348;2023-05-10T01:15:27;11.60;99.90
18191;DHT22;47004;51.366;12.348;2023-05-10T01:17:30;11.50;99.90
18191;DHT22;47004;51.366;12.348;2023-05-10T01:19:34;11.50;99.90
18191;DHT22;47004;51.366;12.348;2023-05-10T01:21:45;11.50;99.90
18191;DHT22;47004;51.366;12.348;2023-05-10T01:24:10;11.50;99.90
18191;DHT22;47004;51.366;12.348;2023-05-10T01:26:39;11.40;99.90
18191;DHT22;47004;51.366;12.348;2023-05-10T01:31:36;11.40;99.90
18191;DHT22;47004;51.366;12.348;2023-05-10T01:33:47;11.40;99.90
18191;DHT22;47004;51.366;12.348;2023-05-10T01:36:00;11.40;99.90
18191;DHT22;47004;51.366;12.348;2023-05-10T01:38:11;11.40;99.90
18191;DHT22;47004;51.366;12.348;2023-05-10T01:40:23;11.30;99.90
18191;DHT22;47004;51.366;12.348;2023-05-10T01:42:33;11.30;99.90
18191;DHT22;47004;51.366;12.348;2023-05-10T01:44:41;11.30;99.90
18191;DHT22;47004;51.366;12.348;2023-05-10T01:46:48;11.30;99.90
18191;DHT22;47004;51.366;12.348;2023-05-10T01:48:58;11.20;99.90
18191;DHT22;47004;51.366;12.348;2023-05-10T01:51:01;11.20;99.90
18191;DHT22;47004;51.366;12.348;2023-05-10T01:53:06;11.20;99.90
18191;DHT22;47004;51.366;12.348;2023-05-10T01:55:13;11.10;99.90
18191;DHT22;47004;51.366;12.348;2023-05-10T01:57:17;11.10;99.90
18191;DHT22;47004;51.366;12.348;2023-05-10T01:59:22;11.10;99.90
18191;DHT22;47004;51.366;12.348;2023-05-10T02:01:26;11.10;99.90
18191;DHT22;47004;51.366;12.348;2023-05-10T02:03:30;11.10;99.90
18191;DHT22;47004;51.366;12.348;2023-05-10T02:05:34;11.10;99.90
18191;DHT22;47004;51.366;12.348;2023-05-10T02:07:37;11.00;99.90
18191;DHT22;47004;51.366;12.348;2023-05-10T02:09:39;11.00;99.90
18191;DHT22;47004;51.366;12.348;2023-05-10T02:11:42;11.00;99.90
18191;DHT22;47004;51.366;12.348;2023-05-10T02:13:47;11.00;99.90
18191;DHT22;47004;51.366;12.348;2023-05-10T02:15:50;11.00;99.90
18191;DHT22;47004;51.366;12.348;2023-05-10T02:17:54;11.00;99.90
18191;DHT22;47004;51.366;12.348;2023-05-10T02:19:56;10.90;99.90
18191;DHT22;47004;51.366;12.348;2023-05-10T02:22:02;10.90;99.90
18191;DHT22;47004;51.366;12.348;2023-05-10T02:24:05;10.90;99.90
18191;DHT22;47004;51.366;12.348;2023-05-10T02:26:08;10.80;99.90
18191;DHT22;47004;51.366;12.348;2023-05-10T02:28:12;10.90;99.90
18191;DHT22;47004;51.366;12.348;2023-05-10T02:30:15;10.80;99.90
18191;DHT22;47004;51.366;12.348;2023-05-10T02:32:18;10.90;99.90
18191;DHT22;47004;51.366;12.348;2023-05-10T02:34:22;10.80;99.90
18191;DHT22;47004;51.366;12.348;2023-05-10T02:36:25;10.80;99.90
18191;DHT22;47004;51.366;12.348;2023-05-10T02:38:30;10.80;99.90
18191;DHT22;47004;51.366;12.348;2023-05-10T02:40:33;10.80;99.90
18191;DHT22;47004;51.366;12.348;2023-05-10T02:42:37;10.70;99.90
18191;DHT22;47004;51.366;12.348;2023-05-10T02:44:41;10.70;99.90
18191;DHT22;47004;51.366;12.348;2023-05-10T02:46:43;10.70;99.90
18191;DHT22;47004;51.366;12.348;2023-05-10T02:48:46;10.70;99.90
18191;DHT22;47004;51.366;12.348;2023-05-10T02:50:50;10.60;99.90
18191;DHT22;47004;51.366;12.348;2023-05-10T02:53:00;10.70;99.90
18191;DHT22;47004;51.366;12.348;2023-05-10T02:55:06;10.60;99.90
18191;DHT22;47004;51.366;12.348;2023-05-10T02:57:13;10.60;99.90
18191;DHT22;47004;51.366;12.348;2023-05-10T02:59:18;10.60;99.90
18191;DHT22;47004;51.366;12.348;2023-05-10T03:01:20;10.60;99.90
18191;DHT22;47004;51.366;12.348;2023-05-10T03:03:22;10.60;99.90
18191;DHT22;47004;51.366;12.348;2023-05-10T03:05:24;10.60;99.90
18191;DHT22;47004;51.366;12.348;2023-05-10T03:07:26;10.50;99.90
18191;DHT22;47004;51.366;12.348;2023-05-10T03:09:29;10.50;99.90
18191;DHT22;47004;51.366;12.348;2023-05-10T03:11:43;10.50;99.90
18191;DHT22;47004;51.366;12.348;2023-05-10T03:13:55;10.50;99.90
18191;DHT22;47004;51.366;12.348;2023-05-10T03:16:01;10.50;99.90
18191;DHT22;47004;51.366;12.348;2023-05-10T03:18:10;10.50;99.90
18191;DHT22;47004;51.366;12.348;2023-05-10T03:20:21;10.40;99.90
18191;DHT22;47004;51.366;12.348;2023-05-10T03:22:26;10.40;99.90
18191;DHT22;47004;51.366;12.348;2023-05-10T03:24:32;10.40;99.90
18191;DHT22;47004;51.366;12.348;2023-05-10T03:26:38;10.40;99.90
18191;DHT22;47004;51.366;12.348;2023-05-10T03:28:41;10.40;99.90
18191;DHT22;47004;51.366;12.348;2023-05-10T03:30:43;10.40;99.90
18191;DHT22;47004;51.366;12.348;2023-05-10T03:32:46;10.40;99.90
18191;DHT22;47004;51.366;12.348;2023-05-10T03:34:48;10.40;99.90
18191;DHT22;47004;51.366;12.348;2023-05-10T03:36:50;10.40;99.90
18191;DHT22;47004;51.366;12.348;2023-05-10T03:38:52;10.40;99.90
18191;DHT22;47004;51.366;12.348;2023-05-10T03:40:54;10.40;99.90
18191;DHT22;47004;51.366;12.348;2023-05-10T03:42:57;10.40;99.90
18191;DHT22;47004;51.366;12.348;2023-05-10T03:44:59;10.40;99.90
18191;DHT22;47004;51.366;12.348;2023-05-10T03:47:01;10.40;99.90
18191;DHT22;47004;51.366;12.348;2023-05-10T03:49:03;10.40;99.90
18191;DHT22;47004;51.366;12.348;2023-05-10T03:51:06;10.40;99.90
18191;DHT22;47004;51.366;12.348;2023-05-10T03:53:07;10.40;99.90
18191;DHT22;47004;51.366;12.348;2023-05-10T03:55:10;10.40;99.90
18191;DHT22;47004;51.366;12.348;2023-05-10T03:57:12;10.40;99.90
18191;DHT22;47004;51.366;12.348;2023-05-10T03:59:16;10.50;99.90
18191;DHT22;47004;51.366;12.348;2023-05-10T04:01:18;10.40;99.90
18191;DHT22;47004;51.366;12.348;2023-05-10T04:03:20;10.70;99.90
18191;DHT22;47004;51.366;12.348;2023-05-10T04:05:22;10.50;99.90
18191;DHT22;47004;51.366;12.348;2023-05-10T04:07:24;10.50;99.90
18191;DHT22;47004;51.366;12.348;2023-05-10T04:09:25;10.50;99.90
18191;DHT22;47004;51.366;12.348;2023-05-10T04:11:27;10.50;99.90
18191;DHT22;47004;51.366;12.348;2023-05-10T04:13:29;10.50;99.90
18191;DHT22;47004;51.366;12.348;2023-05-10T04:15:33;10.50;99.90
18191;DHT22;47004;51.366;12.348;2023-05-10T04:17:36;10.50;99.90
18191;DHT22;47004;51.366;12.348;2023-05-10T04:19:38;10.60;99.90
18191;DHT22;47004;51.366;12.348;2023-05-10T04:21:40;10.60;99.90
18191;DHT22;47004;51.366;12.348;2023-05-10T04:23:42;10.60;99.90
18191;DHT22;47004;51.366;12.348;2023-05-10T04:25:44;10.60;99.90
18191;DHT22;47004;51.366;12.348;2023-05-10T04:27:46;10.60;99.90
18191;DHT22;47004;51.366;12.348;2023-05-10T04:29:48;10.70;99.90
18191;DHT22;47004;51.366;12.348;2023-05-10T04:31:52;10.70;99.90
18191;DHT22;47004;51.366;12.348;2023-05-10T04:33:54;10.70;99.90
18191;DHT22;47004;51.366;12.348;2023-05-10T04:35:56;10.70;99.90
18191;DHT22;47004;51.366;12.348;2023-05-10T04:37:58;10.80;99.90
18191;DHT22;47004;51.366;12.348;2023-05-10T04:40:00;10.80;99.90
18191;DHT22;47004;51.366;12.348;2023-05-10T04:42:03;10.80;99.90
18191;DHT22;47004;51.366;12.348;2023-05-10T04:44:06;10.90;99.90
18191;DHT22;47004;51.366;12.348;2023-05-10T04:46:12;10.90;99.90
18191;DHT22;47004;51.366;12.348;2023-05-10T04:48:15;11.00;99.90
18191;DHT22;47004;51.366;12.348;2023-05-10T04:50:17;11.00;99.90
18191;DHT22;47004;51.366;12.348;2023-05-10T04:52:19;11.00;99.90
18191;DHT22;47004;51.366;12.348;2023-05-10T04:54:21;11.10;99.90
18191;DHT22;47004;51.366;12.348;2023-05-10T04:56:23;11.10;99.90
18191;DHT22;47004;51.366;12.348;2023-05-10T04:58:25;11.20;99.90
18191;DHT22;47004;51.366;12.348;2023-05-10T05:00:27;11.30;99.90
18191;DHT22;47004;51.366;12.348;2023-05-10T05:02:29;11.30;99.90
18191;DHT22;47004;51.366;12.348;2023-05-10T05:04:32;11.40;99.90
18191;DHT22;47004;51.366;12.348;2023-05-10T05:06:34;11.50;99.90
18191;DHT22;47004;51.366;12.348;2023-05-10T05:08:36;11.50;99.90
18191;DHT22;47004;51.366;12.348;2023-05-10T05:10:38;11.60;99.90
18191;DHT22;47004;51.366;12.348;2023-05-10T05:12:40;11.70;99.90
18191;DHT22;47004;51.366;12.348;2023-05-10T05:14:42;11.70;99.90
18191;DHT22;47004;51.366;12.348;2023-05-10T05:16:44;11.80;99.90
18191;DHT22;47004;51.366;12.348;2023-05-10T05:18:46;11.90;99.90
18191;DHT22;47004;51.366;12.348;2023-05-10T05:20:49;11.90;99.90
18191;DHT22;47004;51.366;12.348;2023-05-10T05:22:51;12.00;99.90
18191;DHT22;47004;51.366;12.348;2023-05-10T05:24:53;12.00;99.90
18191;DHT22;47004;51.366;12.348;2023-05-10T05:26:55;12.10;99.90
18191;DHT22;47004;51.366;12.348;2023-05-10T05:28:57;12.20;99.90
18191;DHT22;47004;51.366;12.348;2023-05-10T05:30:59;12.30;99.90
18191;DHT22;47004;51.366;12.348;2023-05-10T05:33:03;12.30;99.90
18191;DHT22;47004;51.366;12.348;2023-05-10T05:35:08;12.40;99.90
18191;DHT22;47004;51.366;12.348;2023-05-10T05:37:14;12.40;99.90
18191;DHT22;47004;51.366;12.348;2023-05-10T05:39:16;12.50;99.90
18191;DHT22;47004;51.366;12.348;2023-05-10T05:41:18;12.60;99.90
18191;DHT22;47004;51.366;12.348;2023-05-10T05:43:22;12.70;99.90
18191;DHT22;47004;51.366;12.348;2023-05-10T05:45:24;12.70;99.90
18191;DHT22;47004;51.366;12.348;2023-05-10T05:47:25;12.80;99.90
18191;DHT22;47004;51.366;12.348;2023-05-10T05:49:30;12.90;99.90
18191;DHT22;47004;51.366;12.348;2023-05-10T05:51:33;13.00;99.90
18191;DHT22;47004;51.366;12.348;2023-05-10T05:53:37;13.10;99.90
18191;DHT22;47004;51.366;12.348;2023-05-10T05:55:39;13.20;99.90
18191;DHT22;47004;51.366;12.348;2023-05-10T05:57:41;13.20;99.90
18191;DHT22;47004;51.366;12.348;2023-05-10T05:59:43;13.30;99.90
18191;DHT22;47004;51.366;12.348;2023-05-10T06:01:46;13.40;99.90
18191;DHT22;47004;51.366;12.348;2023-05-10T06:03:48;13.40;99.90
18191;DHT22;47004;51.366;12.348;2023-05-10T06:05:50;13.50;99.90
18191;DHT22;47004;51.366;12.348;2023-05-10T06:07:52;13.70;99.90
18191;DHT22;47004;51.366;12.348;2023-05-10T06:09:55;13.70;99.90
18191;DHT22;47004;51.366;12.348;2023-05-10T06:11:57;13.70;99.90
18191;DHT22;47004;51.366;12.348;2023-05-10T06:13:59;13.80;99.90
18191;DHT22;47004;51.366;12.348;2023-05-10T06:16:01;13.80;99.90
18191;DHT22;47004;51.366;12.348;2023-05-10T06:18:06;13.80;99.90
18191;DHT22;47004;51.366;12.348;2023-05-10T06:20:09;13.90;99.90
18191;DHT22;47004;51.366;12.348;2023-05-10T06:22:11;14.00;99.90
18191;DHT22;47004;51.366;12.348;2023-05-10T06:24:13;14.00;99.90
18191;DHT22;47004;51.366;12.348;2023-05-10T06:26:17;14.00;99.90
18191;DHT22;47004;51.366;12.348;2023-05-10T06:28:19;14.10;99.90
18191;DHT22;47004;51.366;12.348;2023-05-10T06:30:21;14.10;99.90
18191;DHT22;47004;51.366;12.348;2023-05-10T06:32:27;14.20;99.90
18191;DHT22;47004;51.366;12.348;2023-05-10T06:34:29;14.20;99.90
18191;DHT22;47004;51.366;12.348;2023-05-10T06:36:32;14.30;99.90
18191;DHT22;47004;51.366;12.348;2023-05-10T06:38:34;14.40;99.90
18191;DHT22;47004;51.366;12.348;2023-05-10T06:40:36;14.40;99.90
18191;DHT22;47004;51.366;12.348;2023-05-10T06:42:39;14.50;99.90
18191;DHT22;47004;51.366;12.348;2023-05-10T06:44:41;14.60;99.90
18191;DHT22;47004;51.366;12.348;2023-05-10T06:46:44;14.60;99.90
18191;DHT22;47004;51.366;12.348;2023-05-10T06:48:45;14.70;99.90
18191;DHT22;47004;51.366;12.348;2023-05-10T06:50:47;14.80;99.90
18191;DHT22;47004;51.366;12.348;2023-05-10T06:52:49;14.80;99.90
18191;DHT22;47004;51.366;12.348;2023-05-10T06:54:53;14.90;99.90
18191;DHT22;47004;51.366;12.348;2023-05-10T06:56:55;14.90;99.90
18191;DHT22;47004;51.366;12.348;2023-05-10T06:58:58;15.00;99.90
18191;DHT22;47004;51.366;12.348;2023-05-10T07:01:04;15.00;99.90
18191;DHT22;47004;51.366;12.348;2023-05-10T07:03:06;15.10;99.90
18191;DHT22;47004;51.366;12.348;2023-05-10T07:05:08;15.10;99.90
18191;DHT22;47004;51.366;12.348;2023-05-10T07:07:10;15.20;99.90
18191;DHT22;47004;51.366;12.348;2023-05-10T07:09:12;15.20;99.90
18191;DHT22;47004;51.366;12.348;2023-05-10T07:11:15;15.30;99.90
18191;DHT22;47004;51.366;12.348;2023-05-10T07:13:17;15.30;99.90
18191;DHT22;47004;51.366;12.348;2023-05-10T07:15:20;15.30;99.90
18191;DHT22;47004;51.366;12.348;2023-05-10T07:17:23;15.30;99.90
18191;DHT22;47004;51.366;12.348;2023-05-10T07:19:25;15.30;99.90
18191;DHT22;47004;51.366;12.348;2023-05-10T07:21:27;15.30;99.90
18191;DHT22;47004;51.366;12.348;2023-05-10T07:23:29;15.40;99.90
18191;DHT22;47004;51.366;12.348;2023-05-10T07:25:31;15.50;99.90
18191;DHT22;47004;51.366;12.348;2023-05-10T07:27:36;15.50;99.90
18191;DHT22;47004;51.366;12.348;2023-05-10T07:29:40;15.70;99.90
18191;DHT22;47004;51.366;12.348;2023-05-10T07:31:44;15.80;99.90
18191;DHT22;47004;51.366;12.348;2023-05-10T07:33:46;15.90;99.90
18191;DHT22;47004;51.366;12.348;2023-05-10T07:35:48;16.00;99.90
18191;DHT22;47004;51.366;12.348;2023-05-10T07:37:49;16.10;99.90
18191;DHT22;47004;51.366;12.348;2023-05-10T07:39:51;16.20;99.90
18191;DHT22;47004;51.366;12.348;2023-05-10T07:41:54;16.30;99.90
18191;DHT22;47004;51.366;12.348;2023-05-10T07:43:58;16.40;99.90
18191;DHT22;47004;51.366;12.348;2023-05-10T07:46:03;16.60;99.90
18191;DHT22;47004;51.366;12.348;2023-05-10T07:48:07;16.60;99.90
18191;DHT22;47004;51.366;12.348;2023-05-10T07:50:09;16.60;99.90
18191;DHT22;47004;51.366;12.348;2023-05-10T07:52:14;16.70;99.90
18191;DHT22;47004;51.366;12.348;2023-05-10T07:54:16;16.70;99.90
18191;DHT22;47004;51.366;12.348;2023-05-10T07:56:23;16.70;99.90
18191;DHT22;47004;51.366;12.348;2023-05-10T07:58:25;16.70;99.90
18191;DHT22;47004;51.366;12.348;2023-05-10T08:00:27;16.80;99.90
18191;DHT22;47004;51.366;12.348;2023-05-10T08:02:29;16.80;99.90
18191;DHT22;47004;51.366;12.348;2023-05-10T08:04:33;16.90;99.90
18191;DHT22;47004;51.366;12.348;2023-05-10T08:06:35;16.90;99.90
18191;DHT22;47004;51.366;12.348;2023-05-10T08:08:37;17.00;99.90
18191;DHT22;47004;51.366;12.348;2023-05-10T08:10:39;17.10;99.90
18191;DHT22;47004;51.366;12.348;2023-05-10T08:12:43;17.10;99.90
18191;DHT22;47004;51.366;12.348;2023-05-10T08:14:45;17.20;99.90
18191;DHT22;47004;51.366;12.348;2023-05-10T08:16:47;17.20;99.90
18191;DHT22;47004;51.366;12.348;2023-05-10T08:18:49;17.20;99.90
18191;DHT22;47004;51.366;12.348;2023-05-10T08:20:52;17.20;99.90
18191;DHT22;47004;51.366;12.348;2023-05-10T08:22:54;17.10;99.90
18191;DHT22;47004;51.366;12.348;2023-05-10T08:24:56;17.10;99.90
18191;DHT22;47004;51.366;12.348;2023-05-10T08:26:58;17.10;99.90
18191;DHT22;47004;51.366;12.348;2023-05-10T08:29:00;17.10;99.90
18191;DHT22;47004;51.366;12.348;2023-05-10T08:31:02;17.10;99.90
18191;DHT22;47004;51.366;12.348;2023-05-10T08:33:05;17.10;99.90
18191;DHT22;47004;51.366;12.348;2023-05-10T08:35:07;17.00;99.90
18191;DHT22;47004;51.366;12.348;2023-05-10T08:37:11;17.00;99.90
18191;DHT22;47004;51.366;12.348;2023-05-10T08:39:13;17.00;99.90
18191;DHT22;47004;51.366;12.348;2023-05-10T08:41:15;17.00;99.90
18191;DHT22;47004;51.366;12.348;2023-05-10T08:43:18;17.10;99.90
18191;DHT22;47004;51.366;12.348;2023-05-10T08:45:23;17.10;99.90
18191;DHT22;47004;51.366;12.348;2023-05-10T08:47:25;17.10;99.90
18191;DHT22;47004;51.366;12.348;2023-05-10T08:49:31;17.10;99.90
18191;DHT22;47004;51.366;12.348;2023-05-10T08:51:36;17.20;99.90
18191;DHT22;47004;51.366;12.348;2023-05-10T08:53:39;17.20;99.90
18191;DHT22;47004;51.366;12.348;2023-05-10T08:55:45;17.20;99.90
18191;DHT22;47004;51.366;12.348;2023-05-10T08:57:47;17.20;99.90
18191;DHT22;47004;51.366;12.348;2023-05-10T08:59:49;17.20;99.90
18191;DHT22;47004;51.366;12.348;2023-05-10T09:01:52;17.30;99.90
18191;DHT22;47004;51.366;12.348;2023-05-10T09:03:55;17.20;99.90
18191;DHT22;47004;51.366;12.348;2023-05-10T09:05:58;17.10;99.90
18191;DHT22;47004;51.366;12.348;2023-05-10T09:08:00;16.90;99.90
18191;DHT22;47004;51.366;12.348;2023-05-10T09:10:04;16.80;99.90
18191;DHT22;47004;51.366;12.348;2023-05-10T09:12:07;16.60;99.90
18191;DHT22;47004;51.366;12.348;2023-05-10T09:14:12;16.50;99.90
18191;DHT22;47004;51.366;12.348;2023-05-10T09:16:14;16.30;99.90
18191;DHT22;47004;51.366;12.348;2023-05-10T09:18:16;16.00;99.90
18191;DHT22;47004;51.366;12.348;2023-05-10T09:20:19;15.90;99.90
18191;DHT22;47004;51.366;12.348;2023-05-10T09:22:21;15.70;99.90
18191;DHT22;47004;51.366;12.348;2023-05-10T09:24:31;15.60;99.90
18191;DHT22;47004;51.366;12.348;2023-05-10T09:26:35;15.50;99.90
18191;DHT22;47004;51.366;12.348;2023-05-10T09:28:50;15.40;99.90
18191;DHT22;47004;51.366;12.348;2023-05-10T09:30:56;15.30;99.90
18191;DHT22;47004;51.366;12.348;2023-05-10T09:32:58;15.20;99.90
18191;DHT22;47004;51.366;12.348;2023-05-10T09:35:06;15.10;99.90
18191;DHT22;47004;51.366;12.348;2023-05-10T09:37:08;15.00;99.90
18191;DHT22;47004;51.366;12.348;2023-05-10T09:39:11;15.00;99.90
18191;DHT22;47004;51.366;12.348;2023-05-10T09:41:17;14.90;99.90
18191;DHT22;47004;51.366;12.348;2023-05-10T09:43:20;14.80;99.90
18191;DHT22;47004;51.366;12.348;2023-05-10T09:45:23;14.70;99.90
18191;DHT22;47004;51.366;12.348;2023-05-10T09:47:28;14.60;99.90
18191;DHT22;47004;51.366;12.348;2023-05-10T09:49:30;14.50;99.90
18191;DHT22;47004;51.366;12.348;2023-05-10T09:51:34;14.30;99.90
18191;DHT22;47004;51.366;12.348;2023-05-10T09:53:36;14.30;99.90
18191;DHT22;47004;51.366;12.348;2023-05-10T09:55:40;14.20;99.90
18191;DHT22;47004;51.366;12.348;2023-05-10T09:57:43;14.20;99.90
18191;DHT22;47004;51.366;12.348;2023-05-10T09:59:47;14.10;99.90
18191;DHT22;47004;51.366;12.348;2023-05-10T10:01:50;14.20;99.90
18191;DHT22;47004;51.366;12.348;2023-05-10T10:03:53;14.20;99.90
18191;DHT22;47004;51.366;12.348;2023-05-10T10:05:58;14.20;99.90
18191;DHT22;47004;51.366;12.348;2023-05-10T10:08:02;14.20;99.90
18191;DHT22;47004;51.366;12.348;2023-05-10T10:10:05;14.20;99.90
18191;DHT22;47004;51.366;12.348;2023-05-10T10:12:11;14.30;99.90
18191;DHT22;47004;51.366;12.348;2023-05-10T10:14:18;14.30;99.90
18191;DHT22;47004;51.366;12.348;2023-05-10T10:16:21;14.40;99.90
18191;DHT22;47004;51.366;12.348;2023-05-10T10:18:23;14.40;99.90
18191;DHT22;47004;51.366;12.348;2023-05-10T10:20:28;14.40;99.90
18191;DHT22;47004;51.366;12.348;2023-05-10T10:22:30;14.50;99.90
18191;DHT22;47004;51.366;12.348;2023-05-10T10:24:32;14.50;99.90
18191;DHT22;47004;51.366;12.348;2023-05-10T10:26:35;14.60;99.90
18191;DHT22;47004;51.366;12.348;2023-05-10T10:28:44;14.60;99.90
18191;DHT22;47004;51.366;12.348;2023-05-10T10:30:50;14.60;99.90
18191;DHT22;47004;51.366;12.348;2023-05-10T10:33:13;14.70;99.90
18191;DHT22;47004;51.366;12.348;2023-05-10T10:35:15;14.60;99.90
18191;DHT22;47004;51.366;12.348;2023-05-10T10:37:17;14.60;99.90
18191;DHT22;47004;51.366;12.348;2023-05-10T10:39:20;14.60;99.90
18191;DHT22;47004;51.366;12.348;2023-05-10T10:41:28;14.50;99.90
18191;DHT22;47004;51.366;12.348;2023-05-10T10:43:30;14.50;99.90
18191;DHT22;47004;51.366;12.348;2023-05-10T10:45:32;14.50;99.90
18191;DHT22;47004;51.366;12.348;2023-05-10T10:47:34;14.50;99.90
18191;DHT22;47004;51.366;12.348;2023-05-10T10:49:44;14.50;99.90
18191;DHT22;47004;51.366;12.348;2023-05-10T10:52:23;14.60;99.90
18191;DHT22;47004;51.366;12.348;2023-05-10T10:54:28;14.60;99.90
18191;DHT22;47004;51.366;12.348;2023-05-10T10:56:30;14.60;99.90
18191;DHT22;47004;51.366;12.348;2023-05-10T10:58:33;14.60;99.90
18191;DHT22;47004;51.366;12.348;2023-05-10T11:00:37;14.60;99.90
18191;DHT22;47004;51.366;12.348;2023-05-10T11:02:44;14.60;99.90
18191;DHT22;47004;51.366;12.348;2023-05-10T11:04:50;14.70;99.90
18191;DHT22;47004;51.366;12.348;2023-05-10T11:07:19;14.60;99.90
18191;DHT22;47004;51.366;12.348;2023-05-10T11:09:24;14.60;99.90
18191;DHT22;47004;51.366;12.348;2023-05-10T11:11:26;14.60;99.90
18191;DHT22;47004;51.366;12.348;2023-05-10T11:13:30;14.50;99.90
18191;DHT22;47004;51.366;12.348;2023-05-10T11:15:33;14.50;99.90
18191;DHT22;47004;51.366;12.348;2023-05-10T11:17:35;14.50;99.90
18191;DHT22;47004;51.366;12.348;2023-05-10T11:19:37;14.40;99.90
18191;DHT22;47004;51.366;12.348;2023-05-10T11:21:45;14.40;99.90
18191;DHT22;47004;51.366;12.348;2023-05-10T11:23:50;14.50;99.90
18191;DHT22;47004;51.366;12.348;2023-05-10T11:25:52;14.50;99.90
18191;DHT22;47004;51.366;12.348;2023-05-10T11:27:57;14.50;99.90
18191;DHT22;47004;51.366;12.348;2023-05-10T11:30:05;14.60;99.90
18191;DHT22;47004;51.366;12.348;2023-05-10T11:32:08;14.60;99.90
18191;DHT22;47004;51.366;12.348;2023-05-10T11:34:10;14.70;99.90
18191;DHT22;47004;51.366;12.348;2023-05-10T11:36:15;14.80;99.90
18191;DHT22;47004;51.366;12.348;2023-05-10T11:38:17;14.80;99.90
18191;DHT22;47004;51.366;12.348;2023-05-10T11:40:21;14.90;99.90
18191;DHT22;47004;51.366;12.348;2023-05-10T11:42:25;15.00;99.90
18191;DHT22;47004;51.366;12.348;2023-05-10T11:44:29;15.10;99.90
18191;DHT22;47004;51.366;12.348;2023-05-10T11:46:32;15.10;99.90
18191;DHT22;47004;51.366;12.348;2023-05-10T11:48:34;15.20;99.90
18191;DHT22;47004;51.366;12.348;2023-05-10T11:50:37;15.30;99.90
18191;DHT22;47004;51.366;12.348;2023-05-10T11:52:39;15.40;99.90
18191;DHT22;47004;51.366;12.348;2023-05-10T11:54:45;15.40;99.90
18191;DHT22;47004;51.366;12.348;2023-05-10T11:56:50;15.50;99.90
18191;DHT22;47004;51.366;12.348;2023-05-10T11:58:53;15.60;99.90
18191;DHT22;47004;51.366;12.348;2023-05-10T12:00:56;15.70;99.90
18191;DHT22;47004;51.366;12.348;2023-05-10T12:02:59;15.70;99.90
18191;DHT22;47004;51.366;12.348;2023-05-10T12:05:02;15.80;99.90
18191;DHT22;47004;51.366;12.348;2023-05-10T12:07:04;15.90;99.90
18191;DHT22;47004;51.366;12.348;2023-05-10T12:09:07;15.90;99.90
18191;DHT22;47004;51.366;12.348;2023-05-10T12:11:09;16.00;99.90
18191;DHT22;47004;51.366;12.348;2023-05-10T12:13:13;16.10;99.90
18191;DHT22;47004;51.366;12.348;2023-05-10T12:15:18;16.10;99.90
18191;DHT22;47004;51.366;12.348;2023-05-10T12:17:20;16.20;99.90
18191;DHT22;47004;51.366;12.348;2023-05-10T12:19:22;16.30;99.90
18191;DHT22;47004;51.366;12.348;2023-05-10T12:21:25;16.30;99.90
18191;DHT22;47004;51.366;12.348;2023-05-10T12:23:27;16.40;99.90
18191;DHT22;47004;51.366;12.348;2023-05-10T12:25:31;16.50;99.90
18191;DHT22;47004;51.366;12.348;2023-05-10T12:27:33;16.60;99.90
18191;DHT22;47004;51.366;12.348;2023-05-10T12:29:36;16.60;99.90
18191;DHT22;47004;51.366;12.348;2023-05-10T12:31:53;16.60;99.90
18191;DHT22;47004;51.366;12.348;2023-05-10T12:33:55;16.70;99.90
18191;DHT22;47004;51.366;12.348;2023-05-10T12:35:59;16.70;99.90
18191;DHT22;47004;51.366;12.348;2023-05-10T12:38:01;16.70;99.90
18191;DHT22;47004;51.366;12.348;2023-05-10T12:40:23;16.80;99.90
18191;DHT22;47004;51.366;12.348;2023-05-10T12:42:25;16.80;99.90
18191;DHT22;47004;51.366;12.348;2023-05-10T12:44:27;16.90;99.90
18191;DHT22;47004;51.366;12.348;2023-05-10T12:46:30;16.80;99.90
18191;DHT22;47004;51.366;12.348;2023-05-10T12:48:32;16.80;99.90
18191;DHT22;47004;51.366;12.348;2023-05-10T12:50:35;16.90;99.90
18191;DHT22;47004;51.366;12.348;2023-05-10T12:52:37;16.90;99.90